createdAt,value
2019-01-13T00:01:06.244Z,4.85
2019-01-13T00:03:33.159Z,5.17
2019-01-13T00:05:59.826Z,4.40
2019-01-13T00:08:26.826Z,4.90
2019-01-13T00:10:53.741Z,5.20
2019-01-13T00:13:20.988Z,5.28
2019-01-13T00:15:48.012Z,5.55
2019-01-13T00:18:15.709Z,5.03
2019-01-13T00:20:43.393Z,4.83
2019-01-13T00:23:10.990Z,4.17
2019-01-13T00:25:38.083Z,6.53
2019-01-13T00:28:06.974Z,5.35
2019-01-13T00:30:34.002Z,4.95
2019-01-13T00:33:00.983Z,4.65
2019-01-13T00:35:28.061Z,4.70
2019-01-13T00:37:54.982Z,4.50
2019-01-13T00:40:22.987Z,5.30
2019-01-13T00:42:50.846Z,4.83
2019-01-13T00:45:18.902Z,5.47
2019-01-13T00:47:45.929Z,5.35
2019-01-13T00:50:13.679Z,5.30
2019-01-13T00:52:40.711Z,5.20
2019-01-13T00:55:07.736Z,6.20
2019-01-13T00:57:37.190Z,5.65
2019-01-13T01:00:04.746Z,5.75
2019-01-13T01:02:31.812Z,5.90
2019-01-13T01:04:59.881Z,5.92
2019-01-13T01:07:27.209Z,5.78
2019-01-13T01:09:54.355Z,6.28
2019-01-13T01:12:22.256Z,5.90
2019-01-13T01:14:50.977Z,5.00
2019-01-13T01:17:17.560Z,6.30
2019-01-13T01:19:45.455Z,5.70
2019-01-13T01:22:12.434Z,6.12
2019-01-13T01:24:39.563Z,5.47
2019-01-13T01:27:06.510Z,5.95
2019-01-13T01:29:34.246Z,6.62
2019-01-13T01:32:02.329Z,7.35
2019-01-13T01:34:29.384Z,7.05
2019-01-13T01:36:57.024Z,6.83
2019-01-13T01:39:24.148Z,6.12
2019-01-13T01:41:52.169Z,5.85
2019-01-13T01:44:19.919Z,6.33
2019-01-13T01:46:47.886Z,5.53
2019-01-13T01:49:15.027Z,5.35
2019-01-13T01:51:42.031Z,6.15
2019-01-13T01:54:09.784Z,6.20
2019-01-13T01:56:36.793Z,5.67
2019-01-13T01:59:03.927Z,5.58
2019-01-13T02:01:31.073Z,6.33
2019-01-13T02:03:58.111Z,6.00
2019-01-13T02:06:25.229Z,6.67
2019-01-13T02:08:53.033Z,6.30
2019-01-13T02:11:20.153Z,6.30
2019-01-13T02:13:47.459Z,7.53
2019-01-13T02:16:14.570Z,7.85
2019-01-13T02:18:41.618Z,7.60
2019-01-13T02:21:08.590Z,7.35
2019-01-13T02:23:36.310Z,6.97
2019-01-13T02:26:03.304Z,4.58
2019-01-13T02:28:31.207Z,6.00
2019-01-13T02:31:00.104Z,5.70
2019-01-13T02:33:27.177Z,6.20
2019-01-13T02:35:55.380Z,6.50
2019-01-13T02:38:22.391Z,6.87
2019-01-13T02:40:50.425Z,6.03
2019-01-13T02:43:18.253Z,6.47
2019-01-13T02:45:44.900Z,6.55
2019-01-13T02:48:11.956Z,6.75
2019-01-13T02:50:39.115Z,5.95
2019-01-13T02:53:07.024Z,6.37
2019-01-13T02:55:35.356Z,6.33
2019-01-13T02:58:03.109Z,6.40
2019-01-13T03:00:30.420Z,7.25
2019-01-13T03:02:58.335Z,6.62
2019-01-13T03:05:25.351Z,7.28
2019-01-13T03:07:52.422Z,6.22
2019-01-13T03:10:19.416Z,7.75
2019-01-13T03:12:47.345Z,7.42
2019-01-13T03:15:19.370Z,6.90
2019-01-13T03:17:44.624Z,7.33
2019-01-13T03:20:11.823Z,8.85
2019-01-13T03:22:39.873Z,7.05
2019-01-13T03:25:07.822Z,7.62
2019-01-13T03:27:35.693Z,6.65
2019-01-13T03:30:02.823Z,6.47
2019-01-13T03:32:30.093Z,6.25
2019-01-13T03:34:57.136Z,6.03
2019-01-13T03:37:24.171Z,5.95
2019-01-13T03:39:51.498Z,6.65
2019-01-13T03:42:19.439Z,6.20
2019-01-13T03:44:47.192Z,6.20
2019-01-13T03:47:14.229Z,5.47
2019-01-13T03:49:42.088Z,5.05
2019-01-13T03:52:10.216Z,5.33
2019-01-13T03:54:38.263Z,5.47
2019-01-13T03:57:05.654Z,5.70
2019-01-13T03:59:33.529Z,6.92
2019-01-13T04:02:01.844Z,5.58
2019-01-13T04:04:29.438Z,6.65
2019-01-13T04:06:56.616Z,6.35
2019-01-13T04:09:24.651Z,6.08
2019-01-13T04:11:51.604Z,6.62
2019-01-13T04:14:18.586Z,6.45
2019-01-13T04:16:45.697Z,5.47
2019-01-13T04:19:13.634Z,7.25
2019-01-13T04:21:40.650Z,6.42
2019-01-13T04:24:08.385Z,5.53
2019-01-13T04:26:35.539Z,5.67
2019-01-13T04:29:03.609Z,4.85
2019-01-13T04:31:30.805Z,4.58
2019-01-13T04:33:58.771Z,5.72
2019-01-13T04:36:25.582Z,5.42
2019-01-13T04:38:53.374Z,5.30
2019-01-13T04:41:21.298Z,4.65
2019-01-13T04:43:48.403Z,4.80
2019-01-13T04:46:15.506Z,3.72
2019-01-13T04:48:43.259Z,3.80
2019-01-13T04:51:11.358Z,3.95
2019-01-13T04:53:38.468Z,4.87
2019-01-13T04:56:05.478Z,5.08
2019-01-13T04:58:33.286Z,3.85
2019-01-13T05:01:00.352Z,4.05
2019-01-13T05:03:27.322Z,4.03
2019-01-13T05:05:54.367Z,4.37
2019-01-13T05:08:21.433Z,4.72
2019-01-13T05:10:48.644Z,4.92
2019-01-13T05:13:15.596Z,4.50
2019-01-13T05:15:42.646Z,6.80
2019-01-13T05:18:09.900Z,4.40
2019-01-13T05:20:36.966Z,4.55
2019-01-13T05:23:03.974Z,3.85
2019-01-13T05:25:31.849Z,4.87
2019-01-13T05:27:59.003Z,4.35
2019-01-13T05:30:27.280Z,4.53
2019-01-13T05:32:54.170Z,2.80
2019-01-13T05:35:22.173Z,4.62
2019-01-13T05:37:49.089Z,4.20
2019-01-13T05:40:16.902Z,2.98
2019-01-13T05:42:44.546Z,4.08
2019-01-13T05:45:12.153Z,3.62
2019-01-13T05:47:39.053Z,3.40
2019-01-13T05:50:06.698Z,3.45
2019-01-13T05:52:33.607Z,3.02
2019-01-13T05:55:01.448Z,3.17
2019-01-13T05:57:28.354Z,3.83
2019-01-13T05:59:55.489Z,3.27
2019-01-13T06:02:23.177Z,3.85
2019-01-13T06:04:50.192Z,3.60
2019-01-13T06:07:17.196Z,3.55
2019-01-13T06:09:44.482Z,4.83
2019-01-13T06:12:12.191Z,5.20
2019-01-13T06:14:39.154Z,4.42
2019-01-13T06:17:05.858Z,3.20
2019-01-13T06:19:32.981Z,3.42
2019-01-13T06:21:59.971Z,3.33
2019-01-13T06:24:27.962Z,3.80
2019-01-13T06:26:55.627Z,3.02
2019-01-13T06:29:23.623Z,3.67
2019-01-13T06:31:56.270Z,2.98
2019-01-13T06:34:19.922Z,4.30
2019-01-13T06:36:46.984Z,4.45
2019-01-13T06:39:13.973Z,4.67
2019-01-13T06:41:42.104Z,3.72
2019-01-13T06:44:09.859Z,4.03
2019-01-13T06:46:39.219Z,4.05
2019-01-13T06:49:06.192Z,4.85
2019-01-13T06:51:33.372Z,4.28
2019-01-13T06:53:59.941Z,4.70
2019-01-13T06:56:26.986Z,4.90
2019-01-13T06:58:54.810Z,4.65
2019-01-13T07:01:22.734Z,5.42
2019-01-13T07:03:49.925Z,6.75
2019-01-13T07:06:17.731Z,5.67
2019-01-13T07:08:45.139Z,5.08
2019-01-13T07:11:12.215Z,5.55
2019-01-13T07:13:38.944Z,6.17
2019-01-13T07:16:07.336Z,5.45
2019-01-13T07:18:36.115Z,6.12
2019-01-13T07:21:03.115Z,5.03
2019-01-13T07:23:29.743Z,4.33
2019-01-13T07:25:58.492Z,4.30
2019-01-13T07:28:26.184Z,5.12
2019-01-13T07:30:53.130Z,4.55
2019-01-13T07:33:20.899Z,5.25
2019-01-13T07:35:48.014Z,5.45
2019-01-13T07:38:14.701Z,5.72
2019-01-13T07:40:41.848Z,5.03
2019-01-13T07:43:08.727Z,5.72
2019-01-13T07:45:35.774Z,6.08
2019-01-13T07:48:02.975Z,6.78
2019-01-13T07:50:48.097Z,6.08
2019-01-13T07:53:15.278Z,6.05
2019-01-13T07:55:41.996Z,5.58
2019-01-13T07:58:09.115Z,8.50
2019-01-13T08:00:38.365Z,5.53
2019-01-13T08:03:06.227Z,4.15
2019-01-13T08:05:33.275Z,6.08
2019-01-13T08:08:01.032Z,4.97
2019-01-13T08:10:28.108Z,4.92
2019-01-13T08:12:55.214Z,4.90
2019-01-13T08:15:22.371Z,5.37
2019-01-13T08:17:50.039Z,4.62
2019-01-13T08:20:17.225Z,5.67
2019-01-13T08:22:44.623Z,4.60
2019-01-13T08:25:11.649Z,4.60
2019-01-13T08:27:38.754Z,4.47
2019-01-13T08:30:06.578Z,5.35
2019-01-13T08:32:34.373Z,5.22
2019-01-13T08:35:02.140Z,5.55
2019-01-13T08:37:29.705Z,5.72
2019-01-13T08:39:56.752Z,5.55
2019-01-13T08:42:24.523Z,5.53
2019-01-13T08:44:52.327Z,6.70
2019-01-13T08:47:19.466Z,5.55
2019-01-13T08:49:47.368Z,8.13
2019-01-13T08:52:15.050Z,4.83
2019-01-13T08:54:42.724Z,4.72
2019-01-13T08:57:10.528Z,4.80
2019-01-13T08:59:38.290Z,6.70
2019-01-13T09:02:06.109Z,5.58
2019-01-13T09:04:33.083Z,5.15
2019-01-13T09:07:00.260Z,5.28
2019-01-13T09:09:27.384Z,5.35
2019-01-13T09:11:54.452Z,4.30
2019-01-13T09:14:21.608Z,6.60
2019-01-13T09:16:48.258Z,6.25
2019-01-13T09:19:15.372Z,8.75
2019-01-13T09:21:42.099Z,11.20
2019-01-13T09:24:09.929Z,8.90
2019-01-13T09:26:37.009Z,7.78
2019-01-13T09:29:04.184Z,6.37
2019-01-13T09:31:31.440Z,6.78
2019-01-13T09:33:58.588Z,7.67
2019-01-13T09:36:25.741Z,7.00
2019-01-13T09:38:52.867Z,8.55
2019-01-13T09:41:20.679Z,7.75
2019-01-13T09:43:48.273Z,11.12
2019-01-13T09:46:15.428Z,7.85
2019-01-13T09:48:42.089Z,8.20
2019-01-13T09:51:09.996Z,7.92
2019-01-13T09:53:36.757Z,7.42
2019-01-13T09:56:03.489Z,6.20
2019-01-13T09:58:30.195Z,6.95
2019-01-13T10:00:57.346Z,5.60
2019-01-13T10:03:24.452Z,6.03
2019-01-13T10:05:51.160Z,6.05
2019-01-13T10:08:19.214Z,7.22
2019-01-13T10:10:46.252Z,6.70
2019-01-13T10:13:13.333Z,8.05
2019-01-13T10:15:40.589Z,7.60
2019-01-13T10:18:07.450Z,7.15
2019-01-13T10:20:36.232Z,8.98
2019-01-13T10:23:03.414Z,8.15
2019-01-13T10:25:30.459Z,8.83
2019-01-13T10:27:58.261Z,7.53
2019-01-13T10:30:25.361Z,9.78
2019-01-13T10:32:54.614Z,7.53
2019-01-13T10:35:21.014Z,7.50
2019-01-13T10:37:48.818Z,8.50
2019-01-13T10:40:15.946Z,10.35
2019-01-13T10:42:42.955Z,9.63
2019-01-13T10:45:10.132Z,12.05
2019-01-13T10:47:37.272Z,13.45
2019-01-13T10:50:04.342Z,11.20
2019-01-13T10:52:31.787Z,12.30
2019-01-13T10:54:59.123Z,11.38
2019-01-13T10:57:26.528Z,9.80
2019-01-13T10:59:53.667Z,10.20
2019-01-13T11:02:21.436Z,9.95
2019-01-13T11:04:48.634Z,9.20
2019-01-13T11:07:15.361Z,8.93
2019-01-13T11:09:42.457Z,8.73
2019-01-13T11:12:09.524Z,10.38
2019-01-13T11:14:36.376Z,7.97
2019-01-13T11:17:03.050Z,8.23
2019-01-13T11:19:30.118Z,10.58
2019-01-13T11:21:57.923Z,10.53
2019-01-13T11:24:25.037Z,10.08
2019-01-13T11:26:52.152Z,10.63
2019-01-13T11:29:19.242Z,8.93
2019-01-13T11:31:46.367Z,9.68
2019-01-13T11:34:13.545Z,7.62
2019-01-13T11:36:40.455Z,6.75
2019-01-13T11:39:07.143Z,8.25
2019-01-13T11:41:33.937Z,9.35
2019-01-13T11:44:00.590Z,8.25
2019-01-13T11:46:27.784Z,8.25
2019-01-13T11:48:54.918Z,8.80
2019-01-13T11:51:21.576Z,9.40
2019-01-13T11:53:48.719Z,7.72
2019-01-13T11:56:16.744Z,9.18
2019-01-13T11:58:43.827Z,9.83
2019-01-13T12:01:10.952Z,8.53
2019-01-13T12:03:38.768Z,9.00
2019-01-13T12:06:05.496Z,8.50
2019-01-13T12:08:32.419Z,10.38
2019-01-13T12:10:59.463Z,7.62
2019-01-13T12:13:26.641Z,7.10
2019-01-13T12:15:53.386Z,8.43
2019-01-13T12:18:20.119Z,8.63
2019-01-13T12:20:47.911Z,8.58
2019-01-13T12:23:14.654Z,9.43
2019-01-13T12:25:42.345Z,9.08
2019-01-13T12:28:09.130Z,8.53
2019-01-13T12:30:36.400Z,7.55
2019-01-13T12:33:03.082Z,9.15
2019-01-13T12:35:30.794Z,6.62
2019-01-13T12:37:59.283Z,6.85
2019-01-13T12:40:28.316Z,7.78
2019-01-13T12:42:56.828Z,8.15
2019-01-13T12:45:24.733Z,7.58
2019-01-13T12:47:51.898Z,6.87
2019-01-13T12:50:18.557Z,5.80
2019-01-13T12:52:46.474Z,6.12
2019-01-13T12:55:13.143Z,6.85
2019-01-13T12:57:40.742Z,7.70
2019-01-13T13:00:08.048Z,7.22
2019-01-13T13:02:35.351Z,7.75
2019-01-13T13:05:02.387Z,7.25
2019-01-13T13:07:30.059Z,8.00
2019-01-13T13:09:57.353Z,8.33
2019-01-13T13:12:26.519Z,7.60
2019-01-13T13:14:53.619Z,7.53
2019-01-13T13:17:21.492Z,7.15
2019-01-13T13:19:49.530Z,8.68
2019-01-13T13:22:16.262Z,8.70
2019-01-13T13:24:43.410Z,7.97
2019-01-13T13:27:10.685Z,6.03
2019-01-13T13:29:37.671Z,6.15
2019-01-13T13:32:05.659Z,4.92
2019-01-13T13:34:37.115Z,7.20
2019-01-13T13:37:04.167Z,7.58
2019-01-13T13:39:30.856Z,7.20
2019-01-13T13:41:57.957Z,7.87
2019-01-13T13:44:24.858Z,5.87
2019-01-13T13:46:51.932Z,7.37
2019-01-13T13:49:19.631Z,6.28
2019-01-13T13:51:46.741Z,4.72
2019-01-13T13:54:14.691Z,6.37
2019-01-13T13:56:41.822Z,4.83
2019-01-13T13:59:11.258Z,7.03
2019-01-13T14:01:38.341Z,6.17
2019-01-13T14:04:07.480Z,7.15
2019-01-13T14:06:36.324Z,6.15
2019-01-13T14:09:04.362Z,6.62
2019-01-13T14:11:31.509Z,6.42
2019-01-13T14:13:59.362Z,4.72
2019-01-13T14:16:26.032Z,5.95
2019-01-13T14:18:53.306Z,6.25
2019-01-13T14:21:20.392Z,5.90
2019-01-13T14:23:47.492Z,6.45
2019-01-13T14:26:14.250Z,5.20
2019-01-13T14:28:41.273Z,6.35
2019-01-13T14:31:08.064Z,7.28
2019-01-13T14:33:35.182Z,7.78
2019-01-13T14:36:01.895Z,6.25
2019-01-13T14:38:29.086Z,7.10
2019-01-13T14:40:56.815Z,6.00
2019-01-13T14:43:23.503Z,7.03
2019-01-13T14:45:50.658Z,7.15
2019-01-13T14:48:17.338Z,6.90
2019-01-13T14:50:44.416Z,5.95
2019-01-13T14:53:11.216Z,5.97
2019-01-13T14:55:37.934Z,6.42
2019-01-13T14:58:06.107Z,5.22
2019-01-13T15:00:33.307Z,6.12
2019-01-13T15:03:00.450Z,7.10
2019-01-13T15:05:27.468Z,5.72
2019-01-13T15:07:54.147Z,5.35
2019-01-13T15:10:20.808Z,6.00
2019-01-13T15:12:47.531Z,6.83
2019-01-13T15:15:14.676Z,6.03
2019-01-13T15:17:41.622Z,6.17
2019-01-13T15:20:12.183Z,6.50
2019-01-13T15:22:39.298Z,7.45
2019-01-13T15:25:06.378Z,6.53
2019-01-13T15:27:33.369Z,5.25
2019-01-13T15:30:00.493Z,6.00
2019-01-13T15:32:27.495Z,5.78
2019-01-13T15:34:54.448Z,5.60
2019-01-13T15:37:21.599Z,6.25
2019-01-13T15:39:48.279Z,5.95
2019-01-13T15:42:16.210Z,7.45
2019-01-13T15:44:43.208Z,7.47
2019-01-13T15:47:10.299Z,11.63
2019-01-13T15:49:37.300Z,15.25
2019-01-13T15:52:04.331Z,10.58
2019-01-13T15:54:32.307Z,10.70
2019-01-13T15:56:59.407Z,10.50
2019-01-13T15:59:26.505Z,11.78
2019-01-13T16:01:53.919Z,12.30
2019-01-13T16:04:21.012Z,11.25
2019-01-13T16:06:48.785Z,8.20
2019-01-13T16:09:16.531Z,8.05
2019-01-13T16:11:43.762Z,7.42
2019-01-13T16:14:11.677Z,6.85
2019-01-13T16:16:40.542Z,6.75
2019-01-13T16:19:07.278Z,7.22
2019-01-13T16:21:34.883Z,7.90
2019-01-13T16:24:01.963Z,6.55
2019-01-13T16:26:29.565Z,6.62
2019-01-13T16:28:56.940Z,7.50
2019-01-13T16:31:24.027Z,7.30
2019-01-13T16:33:51.094Z,8.08
2019-01-13T16:36:18.549Z,7.72
2019-01-13T16:38:45.758Z,7.50
2019-01-13T16:41:13.434Z,7.45
2019-01-13T16:43:40.521Z,7.42
2019-01-13T16:46:07.571Z,6.05
2019-01-13T16:48:34.656Z,6.35
2019-01-13T16:51:01.452Z,7.25
2019-01-13T16:53:28.584Z,7.05
2019-01-13T16:55:56.212Z,6.33
2019-01-13T16:58:32.370Z,5.85
2019-01-13T17:00:59.419Z,6.28
2019-01-13T17:03:26.128Z,6.03
2019-01-13T17:05:53.188Z,5.70
2019-01-13T17:08:20.848Z,6.33
2019-01-13T17:10:48.228Z,6.28
2019-01-13T17:13:15.257Z,5.08
2019-01-13T17:15:43.604Z,5.15
2019-01-13T17:18:11.570Z,5.47
2019-01-13T17:20:39.213Z,8.00
2019-01-13T17:23:06.417Z,7.08
2019-01-13T17:25:33.677Z,6.20
2019-01-13T17:28:01.379Z,6.78
2019-01-13T17:30:28.424Z,5.90
2019-01-13T17:32:56.313Z,5.55
2019-01-13T17:35:23.003Z,5.12
2019-01-13T17:37:50.954Z,4.97
2019-01-13T17:40:18.137Z,4.50
2019-01-13T17:42:45.955Z,5.15
2019-01-13T17:45:12.984Z,4.70
2019-01-13T17:47:39.673Z,4.85
2019-01-13T17:50:07.590Z,5.22
2019-01-13T17:52:34.628Z,5.35
2019-01-13T17:55:01.853Z,5.50
2019-01-13T17:57:28.973Z,5.47
2019-01-13T17:59:56.025Z,6.20
2019-01-13T18:02:22.965Z,5.65
2019-01-13T18:04:50.655Z,4.55
2019-01-13T18:07:18.555Z,5.50
2019-01-13T18:09:45.724Z,5.85
2019-01-13T18:12:12.951Z,6.17
2019-01-13T18:14:39.816Z,5.80
2019-01-13T18:17:06.897Z,6.70
2019-01-13T18:19:33.945Z,6.17
2019-01-13T18:22:01.877Z,5.75
2019-01-13T18:24:28.969Z,6.03
2019-01-13T18:26:55.690Z,5.53
2019-01-13T18:29:22.901Z,4.85
2019-01-13T18:31:49.541Z,4.78
2019-01-13T18:34:18.374Z,5.05
2019-01-13T18:36:46.335Z,5.70
2019-01-13T18:39:13.683Z,5.22
2019-01-13T18:41:40.409Z,5.45
2019-01-13T18:44:07.505Z,5.35
2019-01-13T18:46:35.335Z,4.33
2019-01-13T18:49:03.227Z,4.92
2019-01-13T18:51:30.405Z,4.67
2019-01-13T18:53:57.449Z,5.33
2019-01-13T18:56:24.129Z,3.87
2019-01-13T18:58:50.825Z,4.60
2019-01-13T19:01:17.854Z,4.25
2019-01-13T19:03:44.829Z,4.25
2019-01-13T19:06:11.527Z,4.42
2019-01-13T19:08:39.544Z,4.53
2019-01-13T19:11:08.607Z,4.20
2019-01-13T19:13:35.615Z,3.15
2019-01-13T19:16:02.874Z,3.67
2019-01-13T19:18:30.241Z,7.17
2019-01-13T19:20:57.324Z,5.12
2019-01-13T19:23:26.551Z,6.03
2019-01-13T19:25:53.758Z,7.17
2019-01-13T19:28:21.499Z,4.92
2019-01-13T19:30:48.968Z,4.55
2019-01-13T19:33:15.933Z,3.15
2019-01-13T19:35:42.976Z,4.12
2019-01-13T19:38:10.690Z,4.78
2019-01-13T19:40:37.749Z,4.58
2019-01-13T19:43:05.295Z,5.45
2019-01-13T19:45:33.998Z,5.60
2019-01-13T19:48:01.638Z,4.53
2019-01-13T19:50:29.487Z,4.40
2019-01-13T19:52:56.548Z,4.37
2019-01-13T19:55:24.188Z,4.70
2019-01-13T19:57:53.398Z,4.22
2019-01-13T20:00:20.909Z,5.30
2019-01-13T20:02:48.179Z,5.00
2019-01-13T20:05:14.905Z,4.75
2019-01-13T20:07:41.911Z,4.47
2019-01-13T20:10:11.431Z,5.50
2019-01-13T20:12:40.556Z,4.70
2019-01-13T20:15:08.094Z,4.30
2019-01-13T20:17:35.522Z,3.98
2019-01-13T20:20:02.610Z,3.90
2019-01-13T20:22:31.737Z,4.72
2019-01-13T20:24:58.704Z,5.25
2019-01-13T20:27:25.464Z,4.40
2019-01-13T20:29:52.725Z,5.00
2019-01-13T20:32:19.676Z,4.35
2019-01-13T20:34:46.394Z,3.35
2019-01-13T20:37:14.123Z,4.45
2019-01-13T20:39:41.267Z,3.92
2019-01-13T20:42:08.444Z,4.03
2019-01-13T20:44:36.086Z,3.35
2019-01-13T20:47:03.209Z,3.98
2019-01-13T20:49:30.897Z,4.30
2019-01-13T20:51:58.458Z,4.50
2019-01-13T20:54:25.122Z,4.22
2019-01-13T20:56:52.234Z,3.72
2019-01-13T20:59:19.267Z,3.52
2019-01-13T21:01:45.881Z,4.45
2019-01-13T21:04:13.290Z,5.00
2019-01-13T21:06:40.334Z,3.40
2019-01-13T21:09:07.375Z,4.00
2019-01-13T21:11:34.522Z,4.50
2019-01-13T21:14:01.217Z,4.50
2019-01-13T21:16:28.302Z,3.77
2019-01-13T21:18:55.150Z,4.30
2019-01-13T21:21:22.178Z,3.77
2019-01-13T21:23:49.887Z,4.20
2019-01-13T21:26:16.529Z,4.25
2019-01-13T21:28:43.234Z,4.90
2019-01-13T21:31:10.349Z,3.70
2019-01-13T21:33:38.070Z,3.87
2019-01-13T21:36:05.085Z,3.95
2019-01-13T21:38:32.806Z,3.50
2019-01-13T21:40:59.849Z,3.87
2019-01-13T21:43:27.603Z,3.95
2019-01-13T21:45:54.600Z,4.08
2019-01-13T21:48:21.809Z,4.40
2019-01-13T21:50:49.448Z,3.70
2019-01-13T21:53:16.545Z,3.65
2019-01-13T21:55:44.108Z,3.00
2019-01-13T21:58:11.172Z,3.40
2019-01-13T22:00:37.815Z,2.20
2019-01-13T22:03:04.662Z,2.95
2019-01-13T22:05:32.377Z,2.62
2019-01-13T22:07:59.419Z,2.55
2019-01-13T22:10:28.022Z,3.50
2019-01-13T22:12:54.786Z,3.17
2019-01-13T22:15:22.492Z,2.92
2019-01-13T22:17:49.625Z,2.10
2019-01-13T22:20:16.672Z,2.20
2019-01-13T22:22:44.537Z,3.30
2019-01-13T22:25:11.440Z,2.00
2019-01-13T22:27:38.592Z,3.00
2019-01-13T22:30:05.844Z,3.10
2019-01-13T22:32:32.916Z,2.92
2019-01-13T22:35:00.024Z,2.42
2019-01-13T22:37:27.066Z,2.80
2019-01-13T22:39:54.749Z,3.42
2019-01-13T22:42:21.642Z,3.50
2019-01-13T22:44:49.446Z,3.25
2019-01-13T22:47:16.568Z,3.67
2019-01-13T22:49:44.403Z,5.05
2019-01-13T22:52:11.506Z,3.85
2019-01-13T22:54:39.481Z,3.33
2019-01-13T22:57:06.462Z,2.65
2019-01-13T22:59:33.512Z,1.90
2019-01-13T23:02:00.685Z,2.65
2019-01-13T23:04:27.715Z,2.25
2019-01-13T23:06:54.296Z,2.50
2019-01-13T23:09:21.299Z,2.15
2019-01-13T23:11:49.008Z,2.08
2019-01-13T23:14:16.011Z,2.25
2019-01-13T23:16:43.481Z,2.08
2019-01-13T23:19:11.168Z,3.00
2019-01-13T23:21:38.227Z,2.60
2019-01-13T23:24:05.326Z,2.37
2019-01-13T23:26:31.959Z,2.58
2019-01-13T23:28:59.061Z,2.75
2019-01-13T23:31:26.216Z,2.65
2019-01-13T23:33:53.979Z,2.40
2019-01-13T23:36:21.123Z,2.33
2019-01-13T23:38:48.995Z,2.08
2019-01-13T23:41:16.537Z,2.20
2019-01-13T23:43:43.599Z,2.35
2019-01-13T23:46:11.565Z,2.27
2019-01-13T23:48:39.225Z,2.27
2019-01-13T23:51:06.110Z,2.50
2019-01-13T23:53:32.761Z,2.40
2019-01-13T23:55:59.403Z,2.45
2019-01-13T23:58:26.782Z,2.35
